Covadonga, Spain
Current Conditions -  °F | °C
As of 11:30 PM on Saturday 25 Oct 2014 (Local Time) from LEAS Reporting Station
Few Clouds Few Clouds  
Wind Chill: 57°   Ceiling: Unl
Heat Index: 57°   Visibility: 4mi
Dew Point: 55°   Wind: 1mph
Humidity: 94%   Direction: NA
Pressure: 30.18"   Gusts: NA
Location:  43.32°N, 5.05°W
Report Text: LEAS 252130Z VRB01KT 7000 FEW040 14/13 Q1022 NOSIG
Loading
Personal Weather Stations






























Interactive Weather Map
Tropical Storm Tracking
New forecast layout! Learn more

10-Day Weather Forecast

Advertisements
Track Severe Weather on mobile